sensor_id;sensor_type;location;lat;lon;timestamp;pressure;altitude;pressure_sealevel;temperature;humidity
56414;BME280;42318;48.452;19.526;2023-05-25T00:01:36;98475.50;;;21.51;56.00
56414;BME280;42318;48.452;19.526;2023-05-25T00:09:07;98478.50;;;21.49;55.98
56414;BME280;42318;48.452;19.526;2023-05-25T00:16:37;98485.03;;;21.48;55.89
56414;BME280;42318;48.452;19.526;2023-05-25T00:24:10;98488.56;;;21.49;55.66
56414;BME280;42318;48.452;19.526;2023-05-25T00:31:41;98496.19;;;21.47;55.82
56414;BME280;42318;48.452;19.526;2023-05-25T00:39:11;98488.28;;;21.45;55.83
56414;BME280;42318;48.452;19.526;2023-05-25T00:46:50;98489.38;;;21.44;55.66
56414;BME280;42318;48.452;19.526;2023-05-25T00:54:21;98497.56;;;21.44;55.60
56414;BME280;42318;48.452;19.526;2023-05-25T01:01:54;98492.38;;;21.43;55.78
56414;BME280;42318;48.452;19.526;2023-05-25T01:09:26;98499.72;;;21.42;55.76
56414;BME280;42318;48.452;19.526;2023-05-25T01:16:59;98497.25;;;21.41;55.80
56414;BME280;42318;48.452;19.526;2023-05-25T01:24:51;98493.16;;;21.38;55.94
56414;BME280;42318;48.452;19.526;2023-05-25T01:32:23;98492.06;;;21.39;55.65
56414;BME280;42318;48.452;19.526;2023-05-25T01:39:54;98494.81;;;21.39;55.42
56414;BME280;42318;48.452;19.526;2023-05-25T01:48:22;98496.97;;;21.37;55.79
56414;BME280;42318;48.452;19.526;2023-05-25T01:55:27;98494.50;;;21.36;55.56
56414;BME280;42318;48.452;19.526;2023-05-25T02:02:59;98490.97;;;21.35;55.83
56414;BME280;42318;48.452;19.526;2023-05-25T02:10:33;98482.22;;;21.33;55.76
56414;BME280;42318;48.452;19.526;2023-05-25T02:18:04;98484.97;;;21.33;55.49
56414;BME280;42318;48.452;19.526;2023-05-25T02:25:35;98488.22;;;21.30;55.80
56414;BME280;42318;48.452;19.526;2023-05-25T02:33:06;98496.13;;;21.31;55.62
56414;BME280;42318;48.452;19.526;2023-05-25T02:40:38;98503.47;;;21.31;55.43
56414;BME280;42318;48.452;19.526;2023-05-25T02:48:09;98503.75;;;21.29;55.84
56414;BME280;42318;48.452;19.526;2023-05-25T02:55:39;98510.28;;;21.28;55.83
56414;BME280;42318;48.452;19.526;2023-05-25T03:03:12;98520.38;;;21.28;55.57
56414;BME280;42318;48.452;19.526;2023-05-25T03:10:44;98520.63;;;21.26;55.46
56414;BME280;42318;48.452;19.526;2023-05-25T03:18:15;98527.97;;;21.26;55.83
56414;BME280;42318;48.452;19.526;2023-05-25T03:25:45;98525.25;;;21.26;55.83
56414;BME280;42318;48.452;19.526;2023-05-25T03:33:16;98529.06;;;21.25;55.57
56414;BME280;42318;48.452;19.526;2023-05-25T03:40:47;98524.06;;;21.22;55.66
56414;BME280;42318;48.452;19.526;2023-05-25T03:48:18;98538.28;;;21.24;55.81
56414;BME280;42318;48.452;19.526;2023-05-25T03:55:49;98541.00;;;21.24;55.67
56414;BME280;42318;48.452;19.526;2023-05-25T04:03:21;98552.16;;;21.22;55.71
56414;BME280;42318;48.452;19.526;2023-05-25T04:10:52;98551.84;;;21.19;56.03
56414;BME280;42318;48.452;19.526;2023-05-25T04:18:23;98564.94;;;21.22;55.72
56414;BME280;42318;48.452;19.526;2023-05-25T04:25:54;98575.84;;;21.22;55.56
56414;BME280;42318;48.452;19.526;2023-05-25T04:33:25;98566.84;;;21.21;55.55
56414;BME280;42318;48.452;19.526;2023-05-25T04:40:59;98577.19;;;21.19;55.94
56414;BME280;42318;48.452;19.526;2023-05-25T04:48:31;98567.94;;;21.20;55.86
56414;BME280;42318;48.452;19.526;2023-05-25T04:56:03;98568.75;;;21.21;55.98
56414;BME280;42318;48.452;19.526;2023-05-25T05:03:34;98574.22;;;21.21;56.01
56414;BME280;42318;48.452;19.526;2023-05-25T05:11:05;98562.19;;;21.17;55.75
56414;BME280;42318;48.452;19.526;2023-05-25T05:18:36;98573.38;;;21.20;55.79
56414;BME280;42318;48.452;19.526;2023-05-25T05:26:07;98574.47;;;21.19;56.04
56414;BME280;42318;48.452;19.526;2023-05-25T05:33:40;98578.84;;;21.20;55.78
56414;BME280;42318;48.452;19.526;2023-05-25T05:41:12;98581.56;;;21.20;55.85
56414;BME280;42318;48.452;19.526;2023-05-25T05:48:43;98582.66;;;21.19;56.28
56414;BME280;42318;48.452;19.526;2023-05-25T05:56:17;98588.91;;;21.20;56.14
56414;BME280;42318;48.452;19.526;2023-05-25T06:03:48;98588.09;;;21.19;55.96
56414;BME280;42318;48.452;19.526;2023-05-25T06:11:19;98599.81;;;21.20;56.77
56414;BME280;42318;48.452;19.526;2023-05-25T06:18:51;98601.47;;;21.21;56.38
56414;BME280;42318;48.452;19.526;2023-05-25T06:26:22;98618.63;;;21.21;56.77
56414;BME280;42318;48.452;19.526;2023-05-25T06:33:53;98615.09;;;21.21;59.36
56414;BME280;42318;48.452;19.526;2023-05-25T06:41:23;98614.00;;;21.22;58.73
56414;BME280;42318;48.452;19.526;2023-05-25T06:48:54;98606.41;;;21.24;58.70
56414;BME280;42318;48.452;19.526;2023-05-25T06:56:25;98605.59;;;21.23;58.35
56414;BME280;42318;48.452;19.526;2023-05-25T07:03:57;98613.53;;;21.25;58.54
56414;BME280;42318;48.452;19.526;2023-05-25T07:11:28;98606.19;;;21.25;58.89
56414;BME280;42318;48.452;19.526;2023-05-25T07:18:58;98608.91;;;21.25;58.38
56414;BME280;42318;48.452;19.526;2023-05-25T07:26:31;98607.84;;;21.26;57.92
56414;BME280;42318;48.452;19.526;2023-05-25T07:34:03;98605.09;;;21.26;58.41
56414;BME280;42318;48.452;19.526;2023-05-25T07:41:33;98605.94;;;21.27;58.01
56414;BME280;42318;48.452;19.526;2023-05-25T07:49:04;98608.66;;;21.27;58.24
56414;BME280;42318;48.452;19.526;2023-05-25T07:56:37;98608.09;;;21.25;57.77
56414;BME280;42318;48.452;19.526;2023-05-25T08:04:08;98605.09;;;21.26;57.58
56414;BME280;42318;48.452;19.526;2023-05-25T08:11:39;98597.19;;;21.25;57.68
56414;BME280;42318;48.452;19.526;2023-05-25T08:19:10;98589.56;;;21.27;57.53
56414;BME280;42318;48.452;19.526;2023-05-25T08:26:41;98598.31;;;21.29;57.23
56414;BME280;42318;48.452;19.526;2023-05-25T08:34:12;98590.13;;;21.29;57.30
56414;BME280;42318;48.452;19.526;2023-05-25T08:41:44;98590.13;;;21.29;56.96
56414;BME280;42318;48.452;19.526;2023-05-25T08:49:15;98594.50;;;21.30;57.35
56414;BME280;42318;48.452;19.526;2023-05-25T08:56:51;98597.22;;;21.30;57.02
56414;BME280;42318;48.452;19.526;2023-05-25T09:04:22;98598.88;;;21.31;57.26
56414;BME280;42318;48.452;19.526;2023-05-25T09:11:54;98594.25;;;21.31;57.04
56414;BME280;42318;48.452;19.526;2023-05-25T09:19:26;98585.53;;;21.35;56.99
56414;BME280;42318;48.452;19.526;2023-05-25T09:26:56;98591.81;;;21.35;56.83
56414;BME280;42318;48.452;19.526;2023-05-25T09:34:30;98592.38;;;21.37;56.91
56414;BME280;42318;48.452;19.526;2023-05-25T09:42:05;98589.63;;;21.37;57.04
56414;BME280;42318;48.452;19.526;2023-05-25T09:49:36;98601.94;;;21.40;57.37
56414;BME280;42318;48.452;19.526;2023-05-25T09:57:06;98589.63;;;21.37;58.16
56414;BME280;42318;48.452;19.526;2023-05-25T10:04:38;98591.59;;;21.42;58.75
56414;BME280;42318;48.452;19.526;2023-05-25T10:12:09;98603.34;;;21.47;58.75
56414;BME280;42318;48.452;19.526;2023-05-25T10:27:22;98585.09;;;21.53;58.59
56414;BME280;42318;48.452;19.526;2023-05-25T10:34:56;98584.31;;;21.57;57.97
56414;BME280;42318;48.452;19.526;2023-05-25T10:42:26;98581.03;;;21.55;57.66
56414;BME280;42318;48.452;19.526;2023-05-25T10:49:59;98579.94;;;21.56;57.73
56414;BME280;42318;48.452;19.526;2023-05-25T10:57:32;98579.94;;;21.56;57.52
56414;BME280;42318;48.452;19.526;2023-05-25T11:13:34;98575.88;;;21.59;57.46
56414;BME280;42318;48.452;19.526;2023-05-25T11:21:12;98569.06;;;21.61;57.44
56414;BME280;42318;48.452;19.526;2023-05-25T11:28:45;98571.53;;;21.63;57.29
56414;BME280;42318;48.452;19.526;2023-05-25T11:36:16;98557.59;;;21.59;57.13
56414;BME280;42318;48.452;19.526;2023-05-25T11:43:50;98555.16;;;21.63;57.10
56414;BME280;42318;48.452;19.526;2023-05-25T11:51:23;98545.09;;;21.63;57.07
56414;BME280;42318;48.452;19.526;2023-05-25T11:58:54;98543.44;;;21.62;57.34
56414;BME280;42318;48.452;19.526;2023-05-25T12:06:27;98535.81;;;21.64;56.95
56414;BME280;42318;48.452;19.526;2023-05-25T12:13:59;98527.38;;;21.66;56.69
56414;BME280;42318;48.452;19.526;2023-05-25T12:21:30;98504.44;;;21.62;57.09
56414;BME280;42318;48.452;19.526;2023-05-25T12:29:05;98508.88;;;21.68;57.04
56414;BME280;42318;48.452;19.526;2023-05-25T12:44:35;98517.03;;;21.68;57.04
56414;BME280;42318;48.452;19.526;2023-05-25T12:52:07;98504.22;;;21.69;57.03
56414;BME280;42318;48.452;19.526;2023-05-25T12:59:41;98485.97;;;21.69;56.85
56414;BME280;42318;48.452;19.526;2023-05-25T13:07:12;98462.75;;;21.67;56.98
56414;BME280;42318;48.452;19.526;2023-05-25T13:14:42;98484.06;;;21.70;56.74
56414;BME280;42318;48.452;19.526;2023-05-25T13:22:13;98472.63;;;21.73;56.68
56414;BME280;42318;48.452;19.526;2023-05-25T13:29:44;98474.25;;;21.74;56.52
56414;BME280;42318;48.452;19.526;2023-05-25T13:37:15;98478.34;;;21.76;56.79
56414;BME280;42318;48.452;19.526;2023-05-25T13:44:45;98461.69;;;21.73;56.63
56414;BME280;42318;48.452;19.526;2023-05-25T13:52:16;98473.19;;;21.80;56.63
56414;BME280;42318;48.452;19.526;2023-05-25T13:59:47;98454.63;;;21.82;56.82
56414;BME280;42318;48.452;19.526;2023-05-25T14:07:18;98461.19;;;21.86;57.22
56414;BME280;42318;48.452;19.526;2023-05-25T14:14:49;98448.09;;;21.88;56.86
56414;BME280;42318;48.452;19.526;2023-05-25T14:22:20;98449.75;;;21.94;56.75
56414;BME280;42318;48.452;19.526;2023-05-25T14:29:51;98456.84;;;21.95;56.90
56414;BME280;42318;48.452;19.526;2023-05-25T14:37:22;98455.22;;;21.99;57.29
56414;BME280;42318;48.452;19.526;2023-05-25T14:44:53;98449.75;;;21.99;57.00
56414;BME280;42318;48.452;19.526;2023-05-25T14:52:23;98449.75;;;21.99;57.15
56414;BME280;42318;48.452;19.526;2023-05-25T14:59:54;98454.66;;;21.97;56.77
56414;BME280;42318;48.452;19.526;2023-05-25T15:07:25;98462.59;;;21.99;56.99
56414;BME280;42318;48.452;19.526;2023-05-25T15:14:56;98463.41;;;21.99;56.92
56414;BME280;42318;48.452;19.526;2023-05-25T15:22:27;98438.03;;;21.99;57.29
56414;BME280;42318;48.452;19.526;2023-05-25T15:29:57;98437.47;;;21.97;56.96
56414;BME280;42318;48.452;19.526;2023-05-25T15:37:28;98445.94;;;22.00;56.90
56414;BME280;42318;48.452;19.526;2023-05-25T15:44:59;98449.22;;;22.02;57.26
56414;BME280;42318;48.452;19.526;2023-05-25T15:52:30;98450.03;;;22.03;56.95
56414;BME280;42318;48.452;19.526;2023-05-25T16:00:01;98457.41;;;22.02;57.10
56414;BME280;42318;48.452;19.526;2023-05-25T16:07:32;98463.41;;;21.99;57.18
56414;BME280;42318;48.452;19.526;2023-05-25T16:15:03;98450.59;;;22.00;57.43
56414;BME280;42318;48.452;19.526;2023-05-25T16:22:34;98449.22;;;21.97;57.37
56414;BME280;42318;48.452;19.526;2023-05-25T16:30:05;98442.66;;;21.98;57.13
56414;BME280;42318;48.452;19.526;2023-05-25T16:37:36;98448.13;;;21.98;57.24
56414;BME280;42318;48.452;19.526;2023-05-25T16:45:07;98460.94;;;21.98;57.14
56414;BME280;42318;48.452;19.526;2023-05-25T16:52:38;98460.94;;;21.98;57.19
56414;BME280;42318;48.452;19.526;2023-05-25T17:00:10;98461.22;;;21.96;56.96
56414;BME280;42318;48.452;19.526;2023-05-25T17:07:41;98466.66;;;21.96;57.06
56414;BME280;42318;48.452;19.526;2023-05-25T17:15:12;98462.03;;;21.97;57.32
56414;BME280;42318;48.452;19.526;2023-05-25T17:22:45;98465.31;;;21.99;57.30
56414;BME280;42318;48.452;19.526;2023-05-25T17:30:16;98463.69;;;21.98;56.84
56414;BME280;42318;48.452;19.526;2023-05-25T17:37:47;98460.41;;;22.01;57.32
56414;BME280;42318;48.452;19.526;2023-05-25T17:45:17;98468.31;;;22.02;57.58
56414;BME280;42318;48.452;19.526;2023-05-25T17:52:48;98468.91;;;22.04;57.72
56414;BME280;42318;48.452;19.526;2023-05-25T18:00:19;98467.25;;;22.03;58.15
56414;BME280;42318;48.452;19.526;2023-05-25T18:07:52;98470.81;;;22.04;58.13
56414;BME280;42318;48.452;19.526;2023-05-25T18:15:23;98485.81;;;22.06;58.19
56414;BME280;42318;48.452;19.526;2023-05-25T18:22:53;98479.53;;;22.06;58.02
56414;BME280;42318;48.452;19.526;2023-05-25T18:30:24;98467.00;;;22.05;57.78
56414;BME280;42318;48.452;19.526;2023-05-25T18:37:55;98483.91;;;22.07;57.97
56414;BME280;42318;48.452;19.526;2023-05-25T18:45:26;98487.47;;;22.07;57.98
56414;BME280;42318;48.452;19.526;2023-05-25T18:52:59;98498.38;;;22.07;57.19
56414;BME280;42318;48.452;19.526;2023-05-25T19:00:31;98512.31;;;22.11;57.52
56414;BME280;42318;48.452;19.526;2023-05-25T19:08:02;98516.69;;;22.12;57.27
56414;BME280;42318;48.452;19.526;2023-05-25T19:15:33;98531.16;;;22.12;57.25
56414;BME280;42318;48.452;19.526;2023-05-25T19:23:04;98541.25;;;22.12;57.38
56414;BME280;42318;48.452;19.526;2023-05-25T19:30:35;98542.06;;;22.12;57.29
56414;BME280;42318;48.452;19.526;2023-05-25T19:38:05;98543.16;;;22.11;57.03
56414;BME280;42318;48.452;19.526;2023-05-25T19:45:36;98543.41;;;22.10;56.88
56414;BME280;42318;48.452;19.526;2023-05-25T19:53:07;98554.09;;;22.11;56.85
56414;BME280;42318;48.452;19.526;2023-05-25T20:00:38;98568.22;;;22.08;57.19
56414;BME280;42318;48.452;19.526;2023-05-25T20:08:09;98571.78;;;22.09;56.73
56414;BME280;42318;48.452;19.526;2023-05-25T20:15:40;98571.88;;;22.34;56.72
56414;BME280;42318;48.452;19.526;2023-05-25T20:23:11;98570.50;;;22.32;57.07
56414;BME280;42318;48.452;19.526;2023-05-25T20:30:42;98573.75;;;22.18;56.99
56414;BME280;42318;48.452;19.526;2023-05-25T20:38:13;98566.63;;;22.12;56.74
56414;BME280;42318;48.452;19.526;2023-05-25T20:45:43;98557.84;;;22.05;56.90
56414;BME280;42318;48.452;19.526;2023-05-25T20:53:14;98572.31;;;22.06;57.27
56414;BME280;42318;48.452;19.526;2023-05-25T21:00:45;98565.47;;;22.03;56.74
56414;BME280;42318;48.452;19.526;2023-05-25T21:08:16;98574.19;;;22.00;57.10
56414;BME280;42318;48.452;19.526;2023-05-25T21:15:47;98568.16;;;21.98;56.94
56414;BME280;42318;48.452;19.526;2023-05-25T21:23:18;98593.81;;;21.97;57.14
56414;BME280;42318;48.452;19.526;2023-05-25T21:30:48;98593.25;;;21.95;57.26
56414;BME280;42318;48.452;19.526;2023-05-25T21:38:19;98600.63;;;21.94;56.93
56414;BME280;42318;48.452;19.526;2023-05-25T21:45:50;98609.06;;;21.93;56.82
56414;BME280;42318;48.452;19.526;2023-05-25T21:53:21;98607.44;;;21.92;56.69
56414;BME280;42318;48.452;19.526;2023-05-25T22:00:52;98600.06;;;21.92;57.00
56414;BME280;42318;48.452;19.526;2023-05-25T22:08:22;98612.06;;;21.91;56.72
56414;BME280;42318;48.452;19.526;2023-05-25T22:15:54;98607.97;;;21.89;56.61
56414;BME280;42318;48.452;19.526;2023-05-25T22:23:26;98600.84;;;21.88;56.60
56414;BME280;42318;48.452;19.526;2023-05-25T22:30:57;98609.03;;;21.88;56.68
56414;BME280;42318;48.452;19.526;2023-05-25T22:38:28;98611.22;;;21.86;56.61
56414;BME280;42318;48.452;19.526;2023-05-25T22:45:59;98612.03;;;21.86;56.76
56414;BME280;42318;48.452;19.526;2023-05-25T22:53:29;98609.56;;;21.85;56.46
56414;BME280;42318;48.452;19.526;2023-05-25T23:01:00;98619.41;;;21.86;56.55
56414;BME280;42318;48.452;19.526;2023-05-25T23:08:31;98609.84;;;21.83;56.78
56414;BME280;42318;48.452;19.526;2023-05-25T23:16:02;98611.47;;;21.84;56.79
56414;BME280;42318;48.452;19.526;2023-05-25T23:23:33;98613.09;;;21.80;56.75
56414;BME280;42318;48.452;19.526;2023-05-25T23:31:04;98609.00;;;21.83;56.68
56414;BME280;42318;48.452;19.526;2023-05-25T23:38:35;98604.66;;;21.82;56.54
56414;BME280;42318;48.452;19.526;2023-05-25T23:46:06;98611.19;;;21.81;56.45
56414;BME280;42318;48.452;19.526;2023-05-25T23:53:37;98610.38;;;21.80;56.56
